.
WxDataArchive / Data Records for 2012-08-07
2012-08-06 August 2012 2012-08-08

Data Records for Tuesday, 07 August 2012

Time	Temp	Chill	HIndex	Humid	Dewpt	 Wind 	HiWind	WindDir	Rain 	Barom 
-----	----	-----	------	-----	-----	------	------	-------	-----	----- 
00:00	62.7	62.7	62.7	79	56.1	0	0	---	0.00	30.020 
00:05	62.6	62.6	62.6	79	56.0	0	0	---	0.00	30.020 
00:10	62.4	62.4	62.4	79	55.8	0	0	---	0.00	30.020 
00:15	62.3	62.3	62.3	79	55.7	0	0	---	0.00	30.017 
00:20	62.1	62.1	62.1	79	55.5	0	0	---	0.00	30.017 
00:25	62.0	62.0	62.0	80	55.8	0	0	---	0.00	30.017 
00:30	61.8	61.8	61.8	80	55.6	0	0	---	0.00	30.014 
00:35	61.5	61.5	61.5	81	55.6	0	0	---	0.00	30.014 
00:40	61.3	61.3	61.3	81	55.4	0	0	---	0.00	30.014 
00:45	61.2	61.2	61.2	81	55.3	0	0	---	0.00	30.007 
00:50	61.0	61.0	61.0	81	55.1	0	0	---	0.00	30.007 
00:55	60.9	60.9	60.9	82	55.4	0	0	---	0.00	30.007 
01:00	60.7	60.7	60.7	82	55.2	0	0	---	0.00	30.005 
01:05	60.5	60.5	60.5	83	55.3	0	0	---	0.00	30.005 
01:10	60.4	60.4	60.4	83	55.2	0	0	---	0.00	30.005 
01:15	60.2	60.2	60.2	84	55.3	0	0	---	0.00	30.003 
01:20	60.2	60.2	60.2	84	55.3	0	0	---	0.00	30.003 
01:25	60.1	60.1	60.1	84	55.2	0	0	---	0.00	30.003 
01:30	59.9	59.9	59.9	85	55.4	0	0	---	0.00	30.004 
01:35	59.8	59.8	59.8	85	55.3	0	0	---	0.00	30.004 
01:40	59.8	59.8	59.8	85	55.3	0	0	---	0.00	30.004 
01:45	59.6	59.6	59.6	86	55.4	0	0	---	0.00	30.001 
01:50	59.5	59.5	59.5	86	55.3	0	0	---	0.00	30.001 
01:55	59.5	59.5	59.5	86	55.3	0	0	---	0.00	30.001 
02:00	59.3	59.3	59.3	86	55.1	0	0	---	0.00	30.002 
02:05	59.2	59.2	59.2	87	55.3	0	0	---	0.00	30.002 
02:10	59.2	59.2	59.2	87	55.3	0	0	---	0.00	30.002 
02:15	59.0	59.0	59.0	87	55.1	0	0	---	0.00	29.996 
02:20	58.9	58.9	58.9	87	55.0	0	0	---	0.00	29.996 
02:25	58.9	58.9	58.9	87	55.0	0	0	---	0.00	29.996 
02:30	58.7	58.7	58.7	88	55.2	0	0	---	0.00	29.991 
02:35	58.6	58.6	58.6	88	55.1	0	0	---	0.00	29.991 
02:40	58.6	58.6	58.6	88	55.1	0	0	---	0.00	29.991 
02:45	58.4	58.4	58.4	88	54.9	0	0	---	0.00	29.989 
02:50	58.3	58.3	58.3	88	54.8	0	0	---	0.00	29.989 
02:55	58.1	58.1	58.1	89	54.9	0	0	---	0.00	29.989 
03:00	58.0	58.0	58.0	89	54.8	0	0	---	0.00	29.988 
03:05	57.8	57.8	57.8	89	54.6	0	0	---	0.00	29.988 
03:10	57.6	57.6	57.6	89	54.4	0	0	---	0.00	29.988 
03:15	57.5	57.5	57.5	89	54.3	0	0	---	0.00	29.987 
03:20	57.5	57.5	57.5	89	54.3	0	0	---	0.00	29.987 
03:25	57.3	57.3	57.3	90	54.4	0	0	---	0.00	29.987 
03:30	57.2	57.2	57.2	90	54.3	0	0	---	0.00	29.988 
03:35	57.2	57.2	57.2	90	54.3	0	0	---	0.00	29.988 
03:40	57.0	57.0	57.0	90	54.1	0	0	---	0.00	29.988 
03:45	56.9	56.9	56.9	90	54.0	0	0	---	0.00	29.987 
03:50	56.7	56.7	56.7	90	53.8	0	0	---	0.00	29.987 
03:55	56.7	56.7	56.7	91	54.1	0	0	---	0.00	29.987 
04:00	56.6	56.6	56.6	91	54.0	0	0	---	0.00	29.984 
04:05	56.6	56.6	56.6	91	54.0	0	0	---	0.00	29.984 
04:10	56.5	56.5	56.5	91	53.9	0	0	---	0.00	29.984 
04:15	56.3	56.3	56.3	91	53.7	0	0	---	0.00	29.987 
04:20	56.3	56.3	56.3	91	53.7	0	0	---	0.00	29.987 
04:25	56.3	56.3	56.3	91	53.7	0	0	---	0.00	29.987 
04:30	56.2	56.2	56.2	92	53.9	0	0	---	0.00	29.990 
04:35	56.2	56.2	56.2	92	53.9	0	0	---	0.00	29.990 
04:40	56.2	56.2	56.2	92	53.9	0	0	---	0.00	29.990 
04:45	56.2	56.2	56.2	92	53.9	0	0	---	0.00	29.990 
04:50	56.2	56.2	56.2	92	53.9	0	0	---	0.00	29.990 
04:55	56.0	56.0	56.0	92	53.7	0	0	---	0.00	29.990 
05:00	56.0	56.0	56.0	92	53.7	0	0	---	0.00	29.989 
05:05	56.0	56.0	56.0	92	53.7	0	0	---	0.00	29.989 
05:10	55.9	55.9	55.9	92	53.6	0	0	---	0.00	29.989 
05:15	55.7	55.7	55.7	92	53.4	0	0	---	0.00	29.989 
05:20	55.7	55.7	55.7	92	53.4	0	0	---	0.00	29.989 
05:25	55.7	55.7	55.7	92	53.4	0	0	---	0.00	29.989 
05:30	55.7	55.7	55.7	92	53.4	0	0	---	0.00	29.994 
05:35	55.7	55.7	55.7	93	53.7	0	0	---	0.00	29.994 
05:40	55.7	55.7	55.7	93	53.7	0	0	---	0.00	29.994 
05:45	55.6	55.6	55.6	93	53.6	0	0	---	0.00	29.997 
05:50	55.6	55.6	55.6	93	53.6	0	0	---	0.00	29.997 
05:55	55.6	55.6	55.6	93	53.6	0	0	---	0.00	29.997 
06:00	55.6	55.6	55.6	93	53.6	0	0	---	0.00	29.999 
06:05	55.6	55.6	55.6	93	53.6	0	0	---	0.00	29.999 
06:10	55.6	55.6	55.6	93	53.6	0	0	---	0.00	29.999 
06:15	55.6	55.6	55.6	93	53.6	0	0	---	0.00	30.002 
06:20	55.6	55.6	55.6	93	53.6	0	0	---	0.00	30.002 
06:25	55.4	55.4	55.4	93	53.4	0	0	---	0.00	30.002 
06:30	55.4	55.4	55.4	93	53.4	0	0	---	0.00	30.001 
06:35	55.4	55.4	55.4	93	53.4	0	0	---	0.00	30.001 
06:40	55.6	55.6	55.6	93	53.6	0	0	---	0.00	30.001 
06:45	55.4	55.4	55.4	93	53.4	0	0	---	0.00	29.995 
06:50	55.4	55.4	55.4	93	53.4	0	0	---	0.00	29.995 
06:55	55.6	55.6	55.6	94	53.9	0	0	---	0.00	29.995 
07:00	55.6	55.6	55.6	94	53.9	0	0	---	0.00	29.993 
07:05	55.6	55.6	55.6	94	53.9	0	0	---	0.00	29.993 
07:10	55.6	55.6	55.6	94	53.9	0	0	---	0.00	29.993 
07:15	55.7	55.7	55.7	94	54.0	0	0	---	0.00	29.993 
07:20	55.9	55.9	55.9	94	54.2	0	0	---	0.00	29.993 
07:25	56.0	56.0	56.0	94	54.3	0	0	---	0.00	29.993 
07:30	56.2	56.2	56.2	94	54.5	0	0	---	0.00	29.991 
07:35	56.6	56.6	56.6	94	54.9	0	0	---	0.00	29.991 
07:40	56.9	56.9	56.9	94	55.2	0	0	---	0.00	29.991 
07:45	57.2	57.2	57.2	94	55.5	0	0	---	0.00	29.990 
07:50	58.1	58.1	58.1	95	56.7	0	0	---	0.00	29.990 
07:55	58.7	58.7	58.7	94	57.0	0	0	---	0.00	29.990 
08:00	59.3	59.3	59.3	95	57.9	0	0	---	0.00	29.987 
08:05	60.1	60.1	60.1	94	58.4	0	0	---	0.00	29.987 
08:10	61.0	61.0	61.0	94	59.3	0	0	---	0.00	29.987 
08:15	62.1	62.1	62.1	93	60.0	0	0	---	0.00	29.990 
08:20	63.4	63.4	63.4	91	60.7	0	1	270	0.00	29.990 
08:25	64.5	64.5	64.5	87	60.5	0	0	---	0.00	29.990 
08:30	65.5	65.5	65.5	83	60.2	0	0	---	0.00	29.986 
08:35	66.6	66.6	66.6	79	59.9	0	0	---	0.00	29.986 
08:40	67.6	67.6	67.6	76	59.8	0	0	---	0.00	29.986 
08:45	68.6	68.6	68.6	72	59.2	0	1	270	0.00	29.989 
08:50	69.6	69.6	69.6	69	59.0	0	0	---	0.00	29.989 
08:55	70.3	70.3	70.3	65	58.0	0	2	270	0.00	29.989 
09:00	70.6	70.6	70.6	63	57.4	0	2	270	0.00	29.989 
09:05	71.1	71.1	71.1	62	57.4	0	1	270	0.00	29.989 
09:10	72.0	72.0	72.0	63	58.7	0	0	---	0.00	29.989 
09:15	73.2	73.2	73.2	60	58.5	0	1	270	0.00	29.994 
09:20	74.4	74.4	74.4	56	57.7	0	1	270	0.00	29.994 
09:25	74.9	74.9	74.9	54	57.1	0	1	270	0.00	29.994 
09:30	74.9	74.9	74.9	52	56.1	1	2	270	0.00	29.993 
09:35	75.1	75.1	77.6	55	57.8	0	1	270	0.00	29.993 
09:40	75.8	75.8	78.0	54	57.9	0	1	270	0.00	29.993 
09:45	76.3	76.3	78.2	51	56.8	0	2	270	0.00	29.990 
09:50	76.8	76.8	78.5	50	56.7	0	2	270	0.00	29.990 
09:55	76.8	76.8	78.4	48	55.6	0	2	270	0.00	29.990 
10:00	76.8	76.8	78.5	49	56.2	1	2	270	0.00	29.986 
10:05	77.4	77.4	78.8	50	57.3	0	1	270	0.00	29.986 
10:10	77.7	77.7	79.0	49	57.0	0	2	270	0.00	29.986 
10:15	78.1	78.1	79.1	46	55.6	0	2	270	0.00	29.988 
10:20	78.6	78.6	79.4	46	56.1	0	1	270	0.00	29.988 
10:25	79.0	79.0	79.7	46	56.4	1	2	270	0.00	29.988 
10:30	79.2	79.2	80.0	48	57.8	1	3	270	0.00	29.984 
10:35	79.6	79.6	80.0	45	56.4	0	2	270	0.00	29.984 
10:40	80.3	80.3	80.6	45	57.0	0	2	270	0.00	29.984 
10:45	80.7	80.7	80.9	45	57.4	0	2	270	0.00	29.982 
10:50	80.7	80.7	80.7	43	56.1	1	2	270	0.00	29.982 
10:55	81.1	81.1	81.1	44	57.1	1	3	270	0.00	29.982 
11:00	82.0	82.0	81.8	43	57.3	0	2	248	0.00	29.983 
11:05	82.4	82.4	81.8	40	55.6	1	2	248	0.00	29.983 
11:10	82.2	82.2	81.5	39	54.7	1	3	248	0.00	29.983 
11:15	82.2	82.2	81.6	40	55.4	1	2	248	0.00	29.985 
11:20	82.4	82.4	82.0	42	57.0	1	3	248	0.00	29.985 
11:25	82.4	82.4	81.7	39	54.9	1	3	248	0.00	29.985 
11:30	82.4	82.4	81.7	39	54.9	1	6	90	0.00	29.985 
11:35	82.4	82.4	82.2	43	57.6	1	2	90	0.00	29.985 
11:40	83.2	83.2	82.8	42	57.7	0	2	90	0.00	29.985 
11:45	83.4	83.4	82.6	39	55.8	1	3	90	0.00	29.982 
11:50	83.4	83.4	82.6	39	55.8	1	3	90	0.00	29.982 
11:55	84.0	84.0	83.0	38	55.6	1	3	45	0.00	29.982 
12:00	84.1	84.1	83.2	39	56.4	1	2	45	0.00	29.982 
12:05	84.5	84.5	83.5	38	56.1	1	4	45	0.00	29.982 
12:10	84.0	84.0	83.3	40	57.0	1	3	338	0.00	29.982 
12:15	83.8	83.8	82.8	38	55.5	2	3	270	0.00	29.984 
12:20	83.8	83.8	82.5	36	54.0	2	4	270	0.00	29.984 
12:25	83.8	83.8	83.1	40	56.9	1	3	270	0.00	29.984 
12:30	84.1	84.1	82.9	37	55.0	1	3	270	0.00	29.984 
12:35	84.3	84.3	83.0	36	54.4	1	4	270	0.00	29.984 
12:40	84.3	84.3	83.3	38	55.9	1	3	270	0.00	29.984 
12:45	84.5	84.5	83.3	37	55.3	1	3	270	0.00	29.980 
12:50	84.9	84.9	84.0	39	57.1	1	2	270	0.00	29.980 
12:55	85.3	85.3	83.8	35	54.5	1	3	270	0.00	29.980 
13:00	85.3	85.3	84.8	41	58.9	1	3	315	0.00	29.975 
13:05	85.7	85.7	84.5	37	56.4	0	2	45	0.00	29.975 
13:10	85.9	85.9	84.9	38	57.3	1	2	22	0.00	29.975 
13:15	85.7	85.7	84.0	34	54.1	2	9	270	0.00	29.972 
13:20	85.5	85.5	84.0	35	54.7	1	3	270	0.00	29.972 
13:25	85.7	85.7	84.2	35	54.9	0	3	270	0.00	29.972 
13:30	85.7	85.7	84.2	35	54.9	2	3	270	0.00	29.968 
13:35	85.5	85.5	84.0	35	54.7	2	3	270	0.00	29.968 
13:40	85.5	85.5	83.7	33	53.1	2	4	315	0.00	29.968 
13:45	85.5	85.5	83.7	33	53.1	1	4	315	0.00	29.968 
13:50	85.3	85.3	83.5	33	52.9	2	5	270	0.00	29.968 
13:55	85.3	85.3	83.5	33	52.9	2	4	270	0.00	29.968 
14:00	85.3	85.3	83.8	35	54.5	2	4	270	0.00	29.968 
14:05	85.3	85.3	84.0	36	55.3	1	4	315	0.00	29.968 
14:10	85.5	85.5	84.0	35	54.7	2	4	292	0.00	29.968 
14:15	86.1	86.1	84.4	34	54.4	1	3	248	0.00	29.963 
14:20	86.1	86.1	84.1	32	52.8	2	6	270	0.00	29.963 
14:25	86.1	86.1	84.0	31	51.9	2	4	270	0.00	29.963 
14:30	85.9	85.9	84.4	35	55.0	2	4	292	0.00	29.956 
14:35	85.9	85.9	84.2	34	54.2	2	6	292	0.00	29.956 
14:40	86.3	86.3	84.6	34	54.6	2	5	292	0.00	29.956 
14:45	86.3	86.3	84.5	33	53.8	2	4	270	0.00	29.953 
14:50	86.3	86.3	84.8	35	55.4	1	3	270	0.00	29.953 
14:55	86.7	86.7	85.1	34	54.9	1	2	248	0.00	29.953 
15:00	86.7	86.7	84.9	33	54.1	2	5	248	0.00	29.951 
15:05	87.0	87.0	84.9	31	52.7	1	3	270	0.00	29.951 
15:10	87.0	87.0	85.2	33	54.4	1	5	270	0.00	29.951 
15:15	87.0	87.0	85.6	35	56.0	2	4	270	0.00	29.947 
15:20	87.2	87.2	85.6	34	55.4	1	4	292	0.00	29.947 
15:25	87.4	87.4	85.3	31	53.0	2	4	292	0.00	29.947 
15:30	87.4	87.4	85.6	33	54.7	1	4	292	0.00	29.941 
15:35	87.4	87.4	85.4	32	53.9	2	4	292	0.00	29.941 
15:40	87.6	87.6	86.0	34	55.7	1	3	292	0.00	29.941 
15:45	87.6	87.6	85.5	31	53.2	2	5	292	0.00	29.937 
15:50	87.6	87.6	85.7	32	54.1	1	3	292	0.00	29.937 
15:55	87.6	87.6	85.8	33	54.9	1	4	315	0.00	29.937 
16:00	88.0	88.0	85.9	31	53.5	1	3	315	0.00	29.937 
16:05	88.0	88.0	86.3	33	55.2	1	3	315	0.00	29.937 
16:10	88.0	88.0	86.3	33	55.2	1	3	292	0.00	29.937 
16:15	87.6	87.6	85.8	33	54.9	2	4	292	0.00	29.934 
16:20	87.6	87.6	86.0	34	55.7	1	3	270	0.00	29.934 
16:25	87.8	87.8	86.1	33	55.1	1	3	270	0.00	29.934 
16:30	87.8	87.8	86.3	34	55.9	1	4	270	0.00	29.927 
16:35	87.8	87.8	86.3	34	55.9	1	3	270	0.00	29.927 
16:40	87.8	87.8	86.7	36	57.5	1	3	270	0.00	29.927 
16:45	87.8	87.8	86.1	33	55.1	1	3	270	0.00	29.922 
16:50	87.8	87.8	86.3	34	55.9	1	4	270	0.00	29.922 
16:55	87.8	87.8	86.3	34	55.9	1	3	270	0.00	29.922 
17:00	88.0	88.0	86.1	32	54.4	0	2	270	0.00	29.921 
17:05	88.0	88.0	86.5	34	56.1	1	2	270	0.00	29.921 
17:10	88.0	88.0	86.5	34	56.1	2	4	248	0.00	29.921 
17:15	87.6	87.6	86.0	34	55.7	1	4	292	0.00	29.919 
17:20	87.6	87.6	86.2	35	56.5	1	3	292	0.00	29.919 
17:25	87.6	87.6	86.0	34	55.7	1	3	292	0.00	29.919 
17:30	87.4	87.4	85.6	33	54.7	2	3	292	0.00	29.918 
17:35	87.4	87.4	86.2	36	57.1	1	3	292	0.00	29.918 
17:40	87.4	87.4	85.8	34	55.5	1	3	292	0.00	29.918 
17:45	87.6	87.6	86.2	35	56.5	0	2	292	0.00	29.913 
17:50	87.6	87.6	85.8	33	54.9	1	4	270	0.00	29.913 
17:55	87.2	87.2	85.6	34	55.4	2	4	292	0.00	29.913 
18:00	87.2	87.2	85.8	35	56.2	1	3	292	0.00	29.913 
18:05	87.2	87.2	86.0	36	57.0	1	3	292	0.00	29.913 
18:10	87.4	87.4	85.8	34	55.5	1	4	292	0.00	29.913 
18:15	87.2	87.2	86.0	36	57.0	1	3	292	0.00	29.913 
18:20	87.2	87.2	86.2	37	57.7	1	3	292	0.00	29.913 
18:25	87.2	87.2	86.0	36	57.0	1	3	292	0.00	29.913 
18:30	86.7	86.7	85.4	36	56.5	2	4	292	0.00	29.909 
18:35	86.7	86.7	85.8	38	58.0	1	3	315	0.00	29.909 
18:40	86.5	86.5	85.4	37	57.1	1	3	315	0.00	29.909 
18:45	86.5	86.5	85.0	35	55.6	1	4	315	0.00	29.907 
18:50	86.3	86.3	85.2	37	56.9	1	3	315	0.00	29.907 
18:55	86.1	86.1	85.4	39	58.2	1	2	315	0.00	29.907 
19:00	85.9	85.9	84.9	38	57.3	1	2	315	0.00	29.907 
19:05	85.9	85.9	85.1	39	58.0	1	3	315	0.00	29.907 
19:10	85.9	85.9	84.9	38	57.3	2	3	315	0.00	29.907 
19:15	85.9	85.9	84.9	38	57.3	1	2	315	0.00	29.905 
19:20	85.9	85.9	85.1	39	58.0	1	3	315	0.00	29.905 
19:25	85.7	85.7	84.7	38	57.1	1	4	292	0.00	29.905 
19:30	85.5	85.5	84.7	39	57.7	1	3	292	0.00	29.905 
19:35	85.3	85.3	84.5	39	57.5	0	2	292	0.00	29.905 
19:40	85.3	85.3	84.5	39	57.5	1	2	292	0.00	29.905 
19:45	85.1	85.1	84.4	40	58.0	1	3	292	0.00	29.908 
19:50	84.9	84.9	84.4	41	58.5	0	1	292	0.00	29.908 
19:55	84.9	84.9	84.4	41	58.5	0	1	292	0.00	29.908 
20:00	84.7	84.7	84.2	41	58.4	0	2	292	0.00	29.908 
20:05	84.5	84.5	84.0	41	58.2	1	2	292	0.00	29.908 
20:10	84.3	84.3	83.9	42	58.7	0	1	292	0.00	29.908 
20:15	84.3	84.3	83.9	42	58.7	0	1	292	0.00	29.904 
20:20	84.1	84.1	83.9	43	59.2	0	1	292	0.00	29.904 
20:25	84.0	84.0	83.8	43	59.1	0	1	292	0.00	29.904 
20:30	83.8	83.8	83.6	43	58.9	0	0	---	0.00	29.902 
20:35	83.4	83.4	83.3	44	59.2	0	0	---	0.00	29.902 
20:40	83.0	83.0	83.1	45	59.4	0	0	---	0.00	29.902 
20:45	82.4	82.4	82.5	45	58.9	0	0	---	0.00	29.905 
20:50	82.0	82.0	82.2	46	59.1	0	0	---	0.00	29.905 
20:55	81.6	81.6	81.9	47	59.4	0	0	---	0.00	29.905 
21:00	81.1	81.1	81.6	48	59.5	0	0	---	0.00	29.905 
21:05	80.5	80.5	81.2	49	59.6	0	0	---	0.00	29.905 
21:10	80.1	80.1	80.9	50	59.8	0	0	---	0.00	29.905 
21:15	79.6	79.6	80.5	50	59.3	0	0	---	0.00	29.908 
21:20	79.0	79.0	80.0	51	59.3	0	0	---	0.00	29.908 
21:25	78.6	78.6	79.8	53	60.0	0	0	---	0.00	29.908 
21:30	78.3	78.3	79.6	53	59.7	0	0	---	0.00	29.911 
21:35	77.9	77.9	79.3	54	59.9	0	0	---	0.00	29.911 
21:40	77.6	77.6	79.2	56	60.6	0	0	---	0.00	29.911 
21:45	77.2	77.2	78.9	57	60.8	0	0	---	0.00	29.908 
21:50	76.8	76.8	78.6	57	60.4	0	0	---	0.00	29.908 
21:55	76.5	76.5	78.4	58	60.6	0	0	---	0.00	29.908 
22:00	76.1	76.1	78.1	59	60.7	0	0	---	0.00	29.912 
22:05	75.8	75.8	77.9	60	60.9	0	0	---	0.00	29.912 
22:10	75.6	75.6	77.7	60	60.7	0	0	---	0.00	29.912 
22:15	75.3	75.3	77.5	62	61.4	0	0	---	0.00	29.909 
22:20	75.1	75.1	77.3	62	61.2	0	0	---	0.00	29.909 
22:25	74.7	74.7	74.7	63	61.2	0	0	---	0.00	29.909 
22:30	74.4	74.4	74.4	64	61.4	0	0	---	0.00	29.911 
22:35	74.0	74.0	74.0	65	61.5	0	0	---	0.00	29.911 
22:40	73.9	73.9	73.9	65	61.4	0	0	---	0.00	29.911 
22:45	73.7	73.7	73.7	66	61.6	0	0	---	0.00	29.911 
22:50	73.5	73.5	73.5	67	61.9	0	0	---	0.00	29.911 
22:55	73.3	73.3	73.3	68	62.1	0	0	---	0.00	29.911 
23:00	73.2	73.2	73.2	69	62.4	0	0	---	0.00	29.912 
23:05	73.0	73.0	73.0	70	62.6	0	0	---	0.00	29.912 
23:10	72.7	72.7	72.7	70	62.3	0	0	---	0.00	29.912 
23:15	72.5	72.5	72.5	71	62.5	0	0	---	0.00	29.913 
23:20	72.3	72.3	72.3	72	62.8	0	0	---	0.00	29.913 
23:25	72.3	72.3	72.3	73	63.1	0	0	---	0.00	29.913 
23:30	72.1	72.1	72.1	73	63.0	0	0	---	0.00	29.919 
23:35	72.0	72.0	72.0	73	62.9	0	0	---	0.00	29.919 
23:40	71.8	71.8	71.8	74	63.1	0	0	---	0.00	29.919 
23:45	71.6	71.6	71.6	74	62.9	0	0	---	0.00	29.918 
23:50	71.5	71.5	71.5	74	62.8	0	0	---	0.00	29.918 
23:55	71.3	71.3	71.3	75	63.0	0	0	---	0.00	29.918 

CoCoRaHS
IN-AL-39
A2 Web Hosting
Creative Commons License
GoDaddy
search engine by freefind advanced

loaded 2018-11-21 00:33:53 • last modified 2010-11-18 10:43:29
Privacy PolicyDisclaimer
• wx.awcolley.com is powered by PmWiki v.2002016 •
• all content (unless otherwise noted) © 2018 A W Colley